Time;durP1;ratioP1;P1;durP2;ratioP2;P2;SDS_P1;SDS_P2;PMS_P1;PMS_P2;Temp;Humidity;BMP_temperature;BMP_pressure;BME280_temperature;BME280_humidity;BME280_pressure;Samples;Min_cycle;Max_cycle;Signal;HPM_P1;HPM_P2
2023/03/11 00:02:09;;;;;;;31.82;18.82;;;;;;;2.96;100.00;99080.17;1770767;81;21187;-85
2023/03/11 00:05:18;;;;;;;34.67;18.70;;;;;;;2.98;100.00;99084.93;1770867;81;21748;-84
2023/03/11 00:08:27;;;;;;;23.40;16.12;;;;;;;3.16;100.00;99078.98;1769980;81;21231;-84
2023/03/11 00:11:32;;;;;;;35.08;18.42;;;;;;;3.15;100.00;99068.31;1771727;81;21654;-85
2023/03/11 00:14:40;;;;;;;31.90;19.87;;;;;;;3.16;100.00;99070.03;1770860;81;21147;-85
2023/03/11 00:17:47;;;;;;;32.93;19.80;;;;;;;3.17;100.00;99071.22;1771125;81;21317;-85
2023/03/11 00:20:54;;;;;;;30.25;19.30;;;;;;;3.12;100.00;99055.14;1771742;80;21164;-84
2023/03/11 00:24:02;;;;;;;31.30;19.05;;;;;;;3.08;100.00;99054.09;1770244;81;21226;-85
2023/03/11 00:27:08;;;;;;;34.43;19.67;;;;;;;3.10;100.00;99051.23;1754488;81;21215;-85
2023/03/11 00:30:17;;;;;;;33.05;20.15;;;;;;;3.05;100.00;99049.51;1770448;81;21211;-84
2023/03/11 00:33:17;;;;;;;29.40;18.52;;;;;;;3.04;100.00;99041.06;1770156;81;21302;-85
2023/03/11 00:36:12;;;;;;;30.60;18.85;;;;;;;3.02;100.00;99030.43;1771155;81;21740;-85
2023/03/11 00:39:18;;;;;;;33.83;20.52;;;;;;;3.02;100.00;99031.78;1771406;81;21148;-85
2023/03/11 00:42:25;;;;;;;35.25;21.70;;;;;;;3.01;100.00;99031.92;1770916;81;21381;-85
2023/03/11 00:45:30;;;;;;;31.17;18.05;;;;;;;3.00;100.00;99027.53;1754722;81;21203;-85
2023/03/11 00:48:37;;;;;;;34.43;19.80;;;;;;;3.00;100.00;99028.38;1769791;81;21535;-84
2023/03/11 00:51:43;;;;;;;29.48;19.35;;;;;;;2.96;100.00;99020.23;1771121;81;21891;-84
2023/03/11 00:54:49;;;;;;;32.85;19.37;;;;;;;2.90;100.00;99015.48;1768912;80;21266;-86
2023/03/11 00:58:01;;;;;;;33.33;20.50;;;;;;;2.83;100.00;99011.73;1750655;81;21199;-85
2023/03/11 01:05:18;;;;;;;42.03;21.62;;;;;;;2.80;100.00;99008.84;1769747;81;21717;-85
2023/03/11 01:08:31;;;;;;;34.78;21.70;;;;;;;2.85;100.00;98999.42;1770204;81;21180;-85
2023/03/11 01:11:38;;;;;;;43.02;23.98;;;;;;;2.92;100.00;98994.58;1771166;81;21719;-87
2023/03/11 01:14:44;;;;;;;33.25;21.60;;;;;;;2.95;100.00;98990.70;1771251;81;21140;-87
2023/03/11 01:21:50;;;;;;;36.58;22.25;;;;;;;3.06;100.00;98993.14;1771812;81;21147;-86
2023/03/11 01:24:54;;;;;;;38.53;23.62;;;;;;;3.10;100.00;98987.73;1771336;81;21186;-86
2023/03/11 01:28:01;;;;;;;32.53;21.60;;;;;;;3.11;100.00;98990.80;1771500;81;21190;-86
2023/03/11 01:31:07;;;;;;;39.48;22.85;;;;;;;3.12;100.00;98985.73;1771130;81;21155;-86
2023/03/11 01:34:14;;;;;;;36.63;24.52;;;;;;;3.10;100.00;98978.28;1771510;81;21163;-83
2023/03/11 01:37:20;;;;;;;43.80;25.23;;;;;;;3.11;100.00;98984.55;1770001;81;21266;-86
2023/03/11 01:40:36;;;;;;;44.03;25.02;;;;;;;3.09;100.00;98984.70;1771267;81;21235;-85
2023/03/11 01:43:53;;;;;;;40.33;24.82;;;;;;;3.07;100.00;98988.08;1770018;81;21176;-85
2023/03/11 01:47:06;;;;;;;37.40;22.52;;;;;;;3.08;100.00;98978.45;1771422;81;21800;-84
2023/03/11 01:50:15;;;;;;;33.23;20.95;;;;;;;3.11;100.00;98973.24;1770859;81;21314;-84
2023/03/11 01:53:21;;;;;;;42.25;23.05;;;;;;;3.10;100.00;98969.33;1769688;80;21207;-85
2023/03/11 01:56:29;;;;;;;38.00;21.20;;;;;;;3.06;100.00;98975.08;1770872;81;21151;-85
2023/03/11 01:59:39;;;;;;;40.38;25.15;;;;;;;3.10;100.00;98976.08;1769822;81;21765;-84
2023/03/11 02:03:00;;;;;;;35.75;24.35;;;;;;;2.99;100.00;98974.01;1769216;81;21211;-84
2023/03/11 02:06:10;;;;;;;49.27;33.38;;;;;;;3.01;100.00;98960.33;1770372;81;21175;-83
2023/03/11 02:09:16;;;;;;;50.73;33.02;;;;;;;2.92;100.00;98951.88;1770007;81;21228;-83
2023/03/11 02:12:23;;;;;;;48.00;32.58;;;;;;;2.91;100.00;98946.10;1770971;80;21195;-84
2023/03/11 02:15:29;;;;;;;42.20;28.92;;;;;;;2.86;100.00;98953.84;1771036;81;21160;-84
2023/03/11 02:18:37;;;;;;;37.63;25.05;;;;;;;2.87;100.00;98950.13;1753460;81;21207;-85
2023/03/11 02:21:43;;;;;;;40.38;23.05;;;;;;;2.86;100.00;98953.84;1753976;81;21732;-83
2023/03/11 02:25:03;;;;;;;40.83;24.52;;;;;;;2.79;100.00;98954.48;1770926;81;21155;-85
2023/03/11 02:28:12;;;;;;;43.65;30.05;;;;;;;2.79;100.00;98934.23;1770740;81;21192;-85
2023/03/11 02:31:19;;;;;;;41.50;24.47;;;;;;;2.81;100.00;98931.36;1771590;81;21677;-85
2023/03/11 02:34:33;;;;;;;37.38;23.07;;;;;;;2.80;100.00;98935.08;1773146;80;21195;-83
2023/03/11 02:37:39;;;;;;;43.30;23.80;;;;;;;2.77;100.00;98945.69;1754092;81;21783;-86
2023/03/11 02:40:48;;;;;;;49.20;24.05;;;;;;;2.65;100.00;98940.73;1770835;81;21152;-85
2023/03/11 02:43:55;;;;;;;44.00;24.55;;;;;;;2.53;100.00;98930.69;1769643;81;21235;-85
2023/03/11 02:47:02;;;;;;;49.95;25.97;;;;;;;2.46;100.00;98926.95;1770790;81;21132;-85
2023/03/11 02:50:09;;;;;;;49.18;26.50;;;;;;;2.29;100.00;98928.16;1769539;81;21204;-83
2023/03/11 02:53:15;;;;;;;48.68;26.00;;;;;;;2.33;100.00;98930.05;1770682;81;21179;-84
2023/03/11 02:56:21;;;;;;;55.45;27.77;;;;;;;2.37;100.00;98933.29;1768528;80;21239;-83
2023/03/11 02:59:30;;;;;;;49.33;25.52;;;;;;;2.35;100.00;98944.22;1769419;81;21166;-83
2023/03/11 03:02:36;;;;;;;46.77;24.85;;;;;;;2.40;100.00;98934.30;1770763;81;21227;-85
2023/03/11 03:05:44;;;;;;;47.85;27.07;;;;;;;2.43;100.00;98938.05;1750140;81;21191;-85
2023/03/11 03:08:51;;;;;;;55.38;27.50;;;;;;;2.46;100.00;98930.99;1770220;81;21195;-83
2023/03/11 03:11:58;;;;;;;48.87;25.02;;;;;;;2.48;100.00;98940.61;1770190;81;21650;-85
2023/03/11 03:15:05;;;;;;;48.95;25.43;;;;;;;2.55;100.00;98935.44;1769614;81;21156;-83
2023/03/11 03:18:14;;;;;;;48.38;25.90;;;;;;;2.69;100.00;98927.27;1770009;81;21191;-83
2023/03/11 03:21:20;;;;;;;40.45;24.20;;;;;;;2.84;100.00;98919.41;1770008;81;21159;-83
2023/03/11 03:24:28;;;;;;;41.70;22.52;;;;;;;2.96;100.00;98921.64;1770428;81;21140;-83
2023/03/11 03:27:36;;;;;;;35.60;21.62;;;;;;;3.07;100.00;98913.78;1769508;81;21192;-85
2023/03/11 03:30:45;;;;;;;38.08;22.22;;;;;;;3.15;100.00;98903.49;1770093;81;21755;-83
2023/03/11 03:33:50;;;;;;;41.83;23.52;;;;;;;3.19;100.00;98903.00;1752888;81;21803;-85
2023/03/11 03:36:56;;;;;;;41.23;22.82;;;;;;;3.18;100.00;98897.27;1771585;80;21156;-85
2023/03/11 03:40:06;;;;;;;35.20;20.23;;;;;;;3.09;100.00;98896.89;1769896;81;21160;-83
2023/03/11 03:43:11;;;;;;;29.80;19.80;;;;;;;3.01;100.00;98894.15;1770161;81;21708;-85
2023/03/11 03:46:19;;;;;;;32.00;18.05;;;;;;;2.96;100.00;98895.98;1769858;81;21167;-85
2023/03/11 03:49:27;;;;;;;27.25;16.65;;;;;;;2.98;100.00;98898.55;1769699;81;21221;-83
2023/03/11 03:52:33;;;;;;;34.27;19.42;;;;;;;2.99;100.00;98896.18;1771219;80;21227;-85
2023/03/11 03:55:39;;;;;;;32.13;18.50;;;;;;;3.03;100.00;98892.99;1770203;81;21167;-83
2023/03/11 03:58:46;;;;;;;29.65;16.48;;;;;;;3.12;100.00;98896.58;1759574;81;21211;-85
2023/03/11 04:01:54;;;;;;;27.48;17.00;;;;;;;3.17;100.00;98878.02;1761272;81;21224;-86
2023/03/11 04:05:01;;;;;;;26.87;17.48;;;;;;;3.27;100.00;98882.77;1760911;81;21144;-83
2023/03/11 04:08:06;;;;;;;23.25;15.53;;;;;;;3.35;100.00;98881.11;1760159;81;21200;-85
2023/03/11 04:11:13;;;;;;;27.67;14.50;;;;;;;3.40;100.00;98877.41;1760099;81;21251;-85
2023/03/11 04:14:21;;;;;;;26.65;16.48;;;;;;;3.43;100.00;98875.70;1757772;81;21216;-86
2023/03/11 04:17:28;;;;;;;26.85;16.70;;;;;;;3.45;100.00;98883.16;1761528;81;21188;-86
2023/03/11 04:20:36;;;;;;;26.65;16.30;;;;;;;3.48;100.00;98878.28;1758900;81;21180;-86
2023/03/11 04:23:42;;;;;;;25.62;15.45;;;;;;;3.55;100.00;98864.92;1760573;81;21306;-86
2023/03/11 04:26:51;;;;;;;28.98;16.48;;;;;;;3.62;100.00;98859.69;1759373;81;21145;-85
2023/03/11 04:29:58;;;;;;;25.95;17.70;;;;;;;3.71;100.00;98860.03;1759493;81;21792;-83
2023/03/11 04:33:06;;;;;;;28.32;17.48;;;;;;;3.79;100.00;98854.12;1758998;81;21855;-84
2023/03/11 04:36:14;;;;;;;26.20;18.25;;;;;;;3.77;100.00;98852.63;1743194;81;21764;-83
2023/03/11 04:39:14;;;;;;;30.00;18.77;;;;;;;3.82;100.00;98853.80;1760918;81;21172;-86
2023/03/11 04:42:20;;;;;;;26.75;16.50;;;;;;;3.91;100.00;98865.48;1759779;81;22089;-83
2023/03/11 04:45:27;;;;;;;31.30;18.02;;;;;;;3.93;100.00;98858.53;1761224;81;21156;-83
2023/03/11 04:48:34;;;;;;;34.53;20.68;;;;;;;4.01;100.00;98859.89;1760229;81;21227;-84
2023/03/11 04:51:40;;;;;;;32.23;21.07;;;;;;;4.01;100.00;98862.09;1743617;81;21204;-83
2023/03/11 04:54:53;;;;;;;41.98;22.50;;;;;;;4.02;100.00;98865.63;1760839;81;21152;-86
2023/03/11 04:58:10;;;;;;;43.28;22.02;;;;;;;4.00;100.00;98867.64;1752146;80;21765;-86
2023/03/11 05:01:16;;;;;;;34.48;21.65;;;;;;;4.02;100.00;98870.53;1759631;81;21212;-86
2023/03/11 05:04:25;;;;;;;31.55;18.87;;;;;;;4.08;100.00;98870.36;1758145;81;21188;-85
2023/03/11 05:07:31;;;;;;;29.00;19.20;;;;;;;4.10;100.00;98861.58;1761216;81;21735;-86
2023/03/11 05:10:32;;;;;;;26.52;17.80;;;;;;;4.20;100.00;98866.30;1733309;81;21764;-85
2023/03/11 05:13:38;;;;;;;22.35;15.88;;;;;;;4.28;100.00;98854.59;1760453;81;22328;-86
2023/03/11 05:16:44;;;;;;;20.17;14.80;;;;;;;4.39;100.00;98852.91;1761218;81;21267;-83
2023/03/11 05:19:52;;;;;;;18.82;14.78;;;;;;;4.48;100.00;98856.45;1759658;81;21597;-85
2023/03/11 05:22:59;;;;;;;17.23;13.70;;;;;;;4.57;100.00;98862.18;1760206;81;21295;-84
2023/03/11 05:26:05;;;;;;;18.23;14.35;;;;;;;4.65;100.00;98862.14;1761286;81;21216;-84
2023/03/11 05:29:06;;;;;;;22.65;17.00;;;;;;;4.70;100.00;98862.97;1760104;81;21176;-86
2023/03/11 05:32:12;;;;;;;17.17;13.90;;;;;;;4.74;100.00;98861.09;1759772;81;21180;-83
2023/03/11 05:35:20;;;;;;;16.93;13.15;;;;;;;4.82;100.00;98869.20;1759655;81;21209;-85
2023/03/11 05:38:25;;;;;;;17.37;14.60;;;;;;;4.93;100.00;98865.77;1759903;81;21203;-83
2023/03/11 05:41:32;;;;;;;19.12;14.95;;;;;;;5.00;100.00;98862.71;1759575;81;21148;-85
2023/03/11 05:44:38;;;;;;;18.90;14.28;;;;;;;5.06;100.00;98870.12;1759841;81;21788;-84
2023/03/11 05:47:45;;;;;;;16.37;13.68;;;;;;;5.13;100.00;98868.42;1760833;81;21192;-85
2023/03/11 05:50:53;;;;;;;17.10;13.78;;;;;;;5.17;100.00;98867.02;1739445;81;21732;-83
2023/03/11 05:54:00;;;;;;;17.75;14.40;;;;;;;5.20;100.00;98861.25;1757773;81;21765;-85
2023/03/11 05:57:09;;;;;;;19.20;13.85;;;;;;;5.23;100.00;98860.06;1759585;81;21235;-84
2023/03/11 06:00:19;;;;;;;17.20;14.05;;;;;;;5.22;100.00;98854.28;1766060;81;21187;-86
2023/03/11 06:03:27;;;;;;;21.37;16.93;;;;;;;5.24;100.00;98863.95;1755951;81;21554;-83
2023/03/11 06:06:35;;;;;;;22.25;15.48;;;;;;;5.24;100.00;98855.81;1766448;81;21148;-84
2023/03/11 06:09:43;;;;;;;25.20;15.25;;;;;;;5.26;100.00;98857.82;1768973;81;21168;-86
2023/03/11 06:12:50;;;;;;;18.02;14.03;;;;;;;5.35;100.00;98847.27;1769640;81;21862;-84
2023/03/11 06:15:58;;;;;;;19.32;13.88;;;;;;;5.44;100.00;98854.84;1769508;81;21171;-86
2023/03/11 06:19:03;;;;;;;16.32;12.63;;;;;;;5.47;100.00;98847.72;1770243;81;21764;-86
2023/03/11 06:22:08;;;;;;;14.60;11.70;;;;;;;5.52;100.00;98848.53;1770471;81;21195;-86
2023/03/11 06:25:15;;;;;;;13.43;10.90;;;;;;;5.60;100.00;98856.63;1771635;81;21696;-83
2023/03/11 06:28:20;;;;;;;13.10;10.85;;;;;;;5.69;100.00;98853.32;1770662;81;21350;-85
2023/03/11 06:31:35;;;;;;;15.48;10.60;;;;;;;5.72;100.00;98846.19;1770003;81;21231;-84
2023/03/11 06:34:37;;;;;;;9.88;8.40;;;;;;;5.79;100.00;98843.09;1771539;81;21195;-86
2023/03/11 06:37:43;;;;;;;9.63;8.13;;;;;;;5.85;100.00;98830.99;1796164;78;21176;-83
2023/03/11 06:40:50;;;;;;;11.80;8.03;;;;;;;5.88;100.00;98829.28;1733958;82;21226;-85
2023/03/11 06:43:58;;;;;;;9.20;7.37;;;;;;;5.85;100.00;98811.16;1726550;83;21175;-86
2023/03/11 06:46:57;;;;;;;10.78;6.78;;;;;;;5.88;100.00;98821.14;1795808;80;21152;-85
2023/03/11 06:49:49;;;;;;;7.67;6.45;;;;;;;5.96;100.00;98820.76;1790446;80;21700;-85
2023/03/11 06:52:57;;;;;;;7.87;6.45;;;;;;;5.96;100.00;98819.40;1779121;79;21225;-84
2023/03/11 06:56:19;;;;;;;8.25;6.80;;;;;;;6.02;100.00;98813.23;1791848;79;21159;-83
2023/03/11 06:59:27;;;;;;;7.08;5.80;;;;;;;6.03;100.00;98818.50;1783289;79;21152;-84
2023/03/11 07:02:35;;;;;;;9.03;6.70;;;;;;;6.17;100.00;98807.86;1785308;80;21199;-86
2023/03/11 07:05:42;;;;;;;7.78;6.22;;;;;;;6.18;100.00;98802.23;1771933;79;21224;-84
2023/03/11 07:08:48;;;;;;;7.17;6.20;;;;;;;6.18;100.00;98810.38;1764904;80;21206;-84
2023/03/11 07:11:58;;;;;;;7.45;6.20;;;;;;;6.18;100.00;98799.52;1767252;80;21178;-86
2023/03/11 07:15:05;;;;;;;6.80;6.12;;;;;;;6.07;100.00;98794.03;1764993;81;21168;-86
2023/03/11 07:18:12;;;;;;;6.30;5.42;;;;;;;6.08;100.00;98790.28;1765139;80;21200;-83
2023/03/11 07:21:22;;;;;;;6.67;5.50;;;;;;;6.11;100.00;98785.82;1766412;81;21334;-85
2023/03/11 07:24:29;;;;;;;9.75;5.92;;;;;;;6.04;100.00;98779.45;1775837;80;21195;-89
2023/03/11 07:27:36;;;;;;;7.10;5.67;;;;;;;6.10;100.00;98761.58;1776808;79;21188;-82
2023/03/11 07:30:45;;;;;;;8.25;6.40;;;;;;;6.21;100.00;98758.91;1753741;78;21226;-88
2023/03/11 07:33:51;;;;;;;7.65;5.85;;;;;;;6.29;100.00;98752.05;1688860;83;21243;-87
2023/03/11 07:36:57;;;;;;;7.62;6.55;;;;;;;6.41;100.00;98742.41;1705827;83;21324;-87
2023/03/11 07:40:03;;;;;;;8.45;6.70;;;;;;;6.52;100.00;98738.38;1709983;82;21173;-82
2023/03/11 07:43:02;;;;;;;10.23;7.28;;;;;;;6.49;100.00;98738.74;1708993;82;21209;-82
2023/03/11 07:45:55;;;;;;;11.45;7.37;;;;;;;6.55;100.00;98735.29;1727817;82;21221;-82
2023/03/11 07:49:01;;;;;;;9.73;7.25;;;;;;;6.58;100.00;98722.15;1706904;82;21855;-82
2023/03/11 07:52:08;;;;;;;12.35;6.90;;;;;;;6.63;100.00;98721.58;1709692;82;21222;-81
2023/03/11 07:55:14;;;;;;;10.80;7.87;;;;;;;6.75;100.00;98723.31;1699952;82;21773;-86
2023/03/11 07:58:20;;;;;;;9.75;7.50;;;;;;;6.84;100.00;98727.09;1706291;82;21548;-83
2023/03/11 08:01:34;;;;;;;10.55;7.22;;;;;;;6.90;100.00;98720.87;1706761;82;21305;-85
2023/03/11 08:04:37;;;;;;;8.15;6.85;;;;;;;6.97;100.00;98732.36;1704698;82;21194;-84
2023/03/11 08:07:43;;;;;;;10.50;6.87;;;;;;;7.04;100.00;98730.02;1685392;84;21204;-83
2023/03/11 08:10:49;;;;;;;9.23;7.35;;;;;;;7.09;100.00;98724.02;1714438;82;21162;-81
2023/03/11 08:13:56;;;;;;;9.15;7.58;;;;;;;7.09;100.00;98715.34;1727198;83;21230;-81
2023/03/11 08:17:03;;;;;;;8.98;6.50;;;;;;;7.08;100.00;98715.53;1704199;83;21727;-84
2023/03/11 08:20:09;;;;;;;11.88;7.58;;;;;;;7.12;100.00;98710.88;1722276;81;21196;-80
2023/03/11 08:23:15;;;;;;;9.48;7.35;;;;;;;7.15;100.00;98706.92;1765480;80;21191;-84
2023/03/11 08:26:23;;;;;;;11.20;7.87;;;;;;;7.14;100.00;98706.59;1773662;80;21185;-81
2023/03/11 08:29:23;;;;;;;10.48;7.78;;;;;;;7.14;100.00;98707.44;1785213;80;21183;-80
2023/03/11 08:32:30;;;;;;;9.85;6.45;;;;;;;7.17;100.00;98708.95;1786263;80;21164;-84
2023/03/11 08:35:34;;;;;;;10.30;7.03;;;;;;;7.16;100.00;98713.55;1763349;80;21181;-80
2023/03/11 08:38:41;;;;;;;10.93;7.97;;;;;;;7.16;100.00;98714.06;1695671;84;21197;-86
2023/03/11 08:41:46;;;;;;;8.33;6.53;;;;;;;7.15;100.00;98707.78;1780523;80;21165;-80
2023/03/11 08:44:53;;;;;;;9.30;6.22;;;;;;;7.18;100.00;98697.86;1784849;80;21199;-80
2023/03/11 08:47:59;;;;;;;10.05;7.42;;;;;;;7.22;100.00;98699.69;1785213;80;21156;-80
2023/03/11 08:51:06;;;;;;;8.75;7.28;;;;;;;7.29;100.00;98690.22;1765954;80;21817;-84
2023/03/11 08:54:12;;;;;;;8.78;6.95;;;;;;;7.38;100.00;98685.81;1785207;80;21742;-80
2023/03/11 08:57:19;;;;;;;11.88;7.90;;;;;;;7.42;100.00;98688.47;1756106;80;21845;-80
2023/03/11 09:00:27;;;;;;;10.70;7.55;;;;;;;7.49;100.00;98687.70;1773896;80;21716;-88
2023/03/11 09:03:32;;;;;;;8.83;7.12;;;;;;;7.56;100.00;98684.50;1716799;82;21259;-80
2023/03/11 09:06:39;;;;;;;8.80;6.58;;;;;;;7.62;100.00;98689.15;1754554;82;21164;-80
2023/03/11 09:09:45;;;;;;;10.65;8.05;;;;;;;7.64;100.00;98670.24;1728984;81;21138;-88
2023/03/11 09:12:50;;;;;;;10.28;7.28;;;;;;;7.65;100.00;98677.88;1717175;82;21228;-80
2023/03/11 09:15:57;;;;;;;11.30;7.72;;;;;;;7.73;100.00;98673.66;1701663;81;21159;-80
2023/03/11 09:19:06;;;;;;;9.05;6.58;;;;;;;7.81;100.00;98672.66;1722077;83;22189;-81
2023/03/11 09:22:12;;;;;;;8.13;6.28;;;;;;;7.86;100.00;98680.58;1735600;80;21781;-80
2023/03/11 09:25:19;;;;;;;11.85;7.53;;;;;;;7.85;100.00;98673.42;1758431;81;21229;-87
2023/03/11 09:28:25;;;;;;;12.33;7.75;;;;;;;7.91;100.00;98669.92;1734766;81;21442;-80
2023/03/11 09:31:31;;;;;;;10.53;7.12;;;;;;;7.95;100.00;98662.17;1734021;83;21175;-80
2023/03/11 09:34:37;;;;;;;9.53;7.58;;;;;;;7.98;100.00;98657.70;1739669;82;21203;-80
2023/03/11 09:37:43;;;;;;;10.55;6.97;;;;;;;8.03;100.00;98644.33;1733653;82;21202;-80
2023/03/11 09:41:26;;;;;;;8.78;6.62;;;;;;;8.05;100.00;98642.78;1787967;80;21138;-87
2023/03/11 09:44:55;;;;;;;9.20;6.97;;;;;;;8.11;100.00;98634.64;1769370;80;21249;-80
2023/03/11 09:48:27;;;;;;;9.70;6.85;;;;;;;8.16;100.00;98635.40;1786843;80;21170;-81
2023/03/11 09:51:42;;;;;;;9.90;7.70;;;;;;;8.24;100.00;98612.09;1721989;80;21170;-86
2023/03/11 09:54:59;;;;;;;10.58;7.90;;;;;;;8.34;100.00;98603.54;1787041;80;21740;-80
2023/03/11 09:58:06;;;;;;;9.25;7.80;;;;;;;8.43;100.00;98597.73;1704779;83;22223;-81
2023/03/11 10:01:34;;;;;;;13.88;9.98;;;;;;;8.58;100.00;98592.64;1728275;82;21773;-80
2023/03/11 10:04:44;;;;;;;13.43;9.45;;;;;;;8.66;100.00;98589.22;1720290;83;21229;-86
2023/03/11 10:07:51;;;;;;;;;;;;;;;8.66;100.00;98574.22;1775778;79;21590;-80
2023/03/11 10:11:06;;;;;;;11.28;8.85;;;;;;;8.63;100.00;98569.17;1753614;81;20195;-87
2023/03/11 10:14:46;;;;;;;12.98;9.88;;;;;;;8.63;100.00;98565.09;1735813;81;21174;-80
2023/03/11 10:18:13;;;;;;;12.03;8.50;;;;;;;8.62;100.00;98553.87;1712546;82;21182;-87
2023/03/11 10:21:44;;;;;;;11.18;8.58;;;;;;;8.69;100.00;98548.42;1726581;83;21162;-87
2023/03/11 10:24:56;;;;;;;11.55;7.75;;;;;;;8.77;100.00;98541.95;1732015;82;21186;-80
2023/03/11 10:28:19;;;;;;;9.73;8.00;;;;;;;8.83;100.00;98537.02;1740252;81;21248;-88
2023/03/11 10:31:39;;;;;;;11.43;7.80;;;;;;;8.91;100.00;98525.39;1758407;81;21165;-85
2023/03/11 10:34:48;;;;;;;12.15;8.58;;;;;;;9.08;100.00;98520.38;1759361;81;21186;-81
2023/03/11 10:37:58;;;;;;;11.77;7.83;;;;;;;9.21;100.00;98505.86;1758479;81;21197;-87
2023/03/11 10:41:08;;;;;;;11.38;7.53;;;;;;;9.28;100.00;98501.78;1797343;80;21180;-80
2023/03/11 10:44:24;;;;;;;8.60;7.22;;;;;;;9.28;100.00;98499.89;1795436;79;21203;-81
2023/03/11 10:47:24;;;;;;;8.45;6.35;;;;;;;9.26;100.00;98499.77;1803908;79;21218;-85
2023/03/11 10:50:22;;;;;;;9.58;6.92;;;;;;;9.32;100.00;98484.77;1805650;79;21298;-81
2023/03/11 10:53:28;;;;;;;9.05;7.20;;;;;;;9.28;100.00;98482.69;1797849;78;21176;-80
2023/03/11 10:56:46;;;;;;;11.18;8.30;;;;;;;9.26;100.00;98482.88;1785762;80;21227;-85
2023/03/11 10:59:56;;;;;;;17.45;8.83;;;;;;;9.25;100.00;98470.30;1797722;80;21757;-81
2023/03/11 11:03:03;;;;;;;12.43;9.00;;;;;;;9.26;100.00;98462.41;1732761;81;21184;-84
2023/03/11 11:06:27;;;;;;;12.70;8.70;;;;;;;9.24;100.00;98468.63;1761507;81;21196;-81
2023/03/11 11:09:34;;;;;;;11.03;7.72;;;;;;;9.22;100.00;98466.61;1711459;83;21271;-86
2023/03/11 11:12:40;;;;;;;12.15;8.58;;;;;;;9.21;100.00;98458.96;1741008;82;21235;-85
2023/03/11 11:15:49;;;;;;;14.70;8.33;;;;;;;9.24;100.00;98450.89;1705669;83;21221;-80
2023/03/11 11:19:04;;;;;;;15.98;9.93;;;;;;;9.27;100.00;98450.97;1777234;80;21749;-81
2023/03/11 11:22:11;;;;;;;19.82;10.35;;;;;;;9.20;100.00;98441.45;1736999;80;21313;-80
2023/03/11 11:25:30;;;;;;;16.93;9.75;;;;;;;9.11;100.00;98441.36;1713846;82;21166;-80
2023/03/11 11:28:36;;;;;;;19.20;9.35;;;;;;;9.10;100.00;98443.78;1791550;80;21216;-87
2023/03/11 11:31:42;;;;;;;14.20;8.88;;;;;;;9.14;100.00;98439.59;1755897;80;21314;-87
2023/03/11 11:34:47;;;;;;;15.00;8.38;;;;;;;9.14;100.00;98434.97;1788257;80;21164;-80
2023/03/11 11:37:58;;;;;;;13.95;8.60;;;;;;;9.15;100.00;98433.07;1762157;80;21203;-87
2023/03/11 11:41:08;;;;;;;13.13;7.97;;;;;;;9.05;100.00;98431.31;1715430;83;21181;-86
2023/03/11 11:44:16;;;;;;;14.83;8.30;;;;;;;8.98;100.00;98427.73;1733839;82;21179;-87
2023/03/11 11:47:25;;;;;;;14.18;8.80;;;;;;;8.95;100.00;98432.58;1699650;83;21210;-87
2023/03/11 11:50:44;;;;;;;15.70;8.43;;;;;;;8.91;100.00;98428.59;1705343;83;21242;-88
2023/03/11 11:54:06;;;;;;;13.60;8.00;;;;;;;8.87;100.00;98423.25;1697962;84;21249;-87
2023/03/11 11:57:20;;;;;;;17.67;9.33;;;;;;;8.83;100.00;98422.52;1706604;83;21839;-88
2023/03/11 12:00:39;;;;;;;19.70;9.10;;;;;;;8.77;100.00;98420.11;1699129;84;21165;-86
2023/03/11 12:04:04;;;;;;;16.02;8.48;;;;;;;8.75;100.00;98422.23;1692093;83;21196;-86
2023/03/11 12:07:32;;;;;;;20.62;9.33;;;;;;;8.79;100.00;98404.90;1727532;82;21711;-84
2023/03/11 12:10:55;;;;;;;24.10;10.85;;;;;;;8.81;100.00;98404.18;1700183;83;21352;-80
2023/03/11 12:14:34;;;;;;;24.23;10.80;;;;;;;8.85;100.00;98404.91;1773953;80;21300;-85
2023/03/11 12:17:43;;;;;;;24.95;10.53;;;;;;;8.82;100.00;98402.59;1770819;81;21177;-87
2023/03/11 12:21:02;;;;;;;20.12;9.80;;;;;;;8.86;100.00;98394.31;1771622;81;21317;-84
2023/03/11 12:24:37;;;;;;;21.42;9.20;;;;;;;8.95;100.00;98390.31;1771843;81;21306;-87
2023/03/11 12:27:52;;;;;;;19.30;8.65;;;;;;;8.83;100.00;98381.62;1771242;81;21742;-80
2023/03/11 12:31:04;;;;;;;15.83;8.55;;;;;;;8.79;100.00;98382.56;1771625;81;21820;-81
2023/03/11 12:34:12;;;;;;;17.10;8.35;;;;;;;8.80;100.00;98384.27;1771782;81;21169;-85
2023/03/11 12:37:21;;;;;;;20.10;8.78;;;;;;;8.87;100.00;98382.88;1771714;81;21181;-81
2023/03/11 12:41:11;;;;;;;20.23;8.53;;;;;;;8.82;100.00;98375.33;1771904;81;21154;-82
2023/03/11 12:44:36;;;;;;;15.20;8.43;;;;;;;8.83;100.00;98369.36;1771767;81;21149;-81
2023/03/11 12:47:41;;;;;;;27.30;8.75;;;;;;;8.88;100.00;98365.46;1754818;81;21794;-82
2023/03/11 12:50:48;;;;;;;12.55;8.03;;;;;;;8.92;100.00;98364.83;1771791;81;21754;-82
2023/03/11 12:53:55;;;;;;;25.65;8.43;;;;;;;8.95;100.00;98356.23;1771852;81;21868;-86
2023/03/11 12:57:08;;;;;;;20.88;8.48;;;;;;;9.05;100.00;98353.59;1755254;81;21758;-82
2023/03/11 13:01:01;;;;;;;19.80;8.25;;;;;;;9.11;100.00;98348.63;1771867;81;21161;-83
2023/03/11 13:04:38;;;;;;;23.70;9.08;;;;;;;9.10;100.00;98344.23;1771796;81;21746;-85
2023/03/11 13:08:16;;;;;;;21.93;8.95;;;;;;;9.15;100.00;98335.71;1767979;81;21231;-82
2023/03/11 13:11:45;;;;;;;17.65;7.95;;;;;;;9.18;100.00;98338.55;1771625;81;21157;-84
2023/03/11 13:14:51;;;;;;;21.30;8.15;;;;;;;9.23;100.00;98342.83;1769878;81;21165;-81
2023/03/11 13:18:26;;;;;;;18.90;7.70;;;;;;;9.31;100.00;98336.27;1770651;81;21189;-85
2023/03/11 13:21:41;;;;;;;22.13;8.05;;;;;;;9.43;100.00;98340.84;1745869;81;21734;-86
2023/03/11 13:24:55;;;;;;;20.17;7.03;;;;;;;9.54;100.00;98331.66;1771321;81;21189;-79
2023/03/11 13:27:55;;;;;;;;;;;;;;;9.50;100.00;98329.89;1773878;81;21311;-80
2023/03/11 13:31:43;;;;;;;25.12;8.10;;;;;;;9.54;100.00;98327.04;1771575;81;20618;-80
2023/03/11 13:35:24;;;;;;;17.20;7.30;;;;;;;9.51;100.00;98320.67;1771554;81;21170;-84
2023/03/11 13:38:55;;;;;;;25.90;7.83;;;;;;;9.49;100.00;98310.48;1770558;81;21176;-84
2023/03/11 13:42:03;;;;;;;20.45;7.50;;;;;;;9.42;100.00;98304.23;1771502;81;21725;-80
2023/03/11 13:45:09;;;;;;;21.00;7.60;;;;;;;9.53;100.00;98291.78;1755606;81;21161;-80
2023/03/11 13:48:22;;;;;;;20.37;7.95;;;;;;;9.50;100.00;98289.48;1755127;81;21213;-80
2023/03/11 13:51:36;;;;;;;22.65;7.65;;;;;;;9.49;100.00;98287.28;1771252;81;21271;-84
2023/03/11 13:54:57;;;;;;;28.35;8.30;;;;;;;9.65;100.00;98280.49;1771462;81;21204;-85
2023/03/11 13:58:03;;;;;;;25.68;7.15;;;;;;;9.66;100.00;98276.70;1770652;81;21726;-81
2023/03/11 14:01:10;;;;;;;21.20;7.37;;;;;;;9.54;100.00;98267.52;1752083;81;21160;-84
2023/03/11 14:04:18;;;;;;;20.92;8.40;;;;;;;9.58;100.00;98266.03;1771256;81;21700;-83
2023/03/11 14:07:39;;;;;;;20.57;8.53;;;;;;;9.64;100.00;98261.05;1768661;81;21774;-82
2023/03/11 14:10:46;;;;;;;19.55;7.47;;;;;;;9.67;100.00;98264.72;1768877;81;21264;-84
2023/03/11 14:13:56;;;;;;;23.57;8.08;;;;;;;9.65;100.00;98261.39;1768018;81;21235;-86
2023/03/11 14:17:03;;;;;;;18.37;6.97;;;;;;;9.65;100.00;98260.02;1769673;81;21165;-84
2023/03/11 14:20:23;;;;;;;20.70;7.05;;;;;;;9.71;100.00;98253.67;1771345;81;21714;-81
2023/03/11 14:23:31;;;;;;;21.00;8.08;;;;;;;9.61;100.00;98251.43;1770850;81;21165;-84
2023/03/11 14:26:39;;;;;;;25.62;8.33;;;;;;;9.62;100.00;98245.44;1771449;81;21157;-82
2023/03/11 14:29:48;;;;;;;20.12;7.20;;;;;;;9.63;100.00;98247.11;1768841;81;21722;-84
2023/03/11 14:33:13;;;;;;;36.42;9.78;;;;;;;9.62;100.00;98259.92;1770738;81;21201;-83
2023/03/11 14:36:22;;;;;;;28.47;7.78;;;;;;;9.52;100.00;98245.92;1768817;81;21141;-81
2023/03/11 14:39:46;;;;;;;15.55;6.87;;;;;;;9.51;100.00;98243.42;1768489;81;21185;-80
2023/03/11 14:42:52;;;;;;;23.83;7.45;;;;;;;9.49;100.00;98238.16;1771184;81;21202;-80
2023/03/11 14:45:53;;;;;;;18.92;7.78;;;;;;;9.46;100.00;98242.19;1769516;81;21154;-80
2023/03/11 14:48:58;;;;;;;26.95;8.80;;;;;;;9.43;100.00;98237.16;1771510;81;21192;-84
2023/03/11 14:52:08;;;;;;;18.82;7.65;;;;;;;9.41;100.00;98233.83;1768077;81;21220;-81